Munich Aviation Company

We bring you up !

Herzlich willkommen bei der Munich Aviation Company !

Damit ihr Traum vom Fliegen endlich wahr wird: Unser Luftfahrtbetrieb mit Flugschule und Flugzeugvermietung am Flughafen Augsburg bietet ihnen die besten Bedingungen mit neuesten Flugzeugen und Ausbildung nur durch Profis.

Wir garantieren eine fundierte, nach den neusten Richtlinien standardisierte  Ausbildung, ausschließlich von erfahrenen Berufspiloten bzw. Verkehrsluftfahrzeugführern (CPL/ATPL), nicht nur im Bereich der Privatpilotenlizenz  (LAPL/PPLA) sondern auch für die Instrumentenflugberechtigung (en route IR/IFR), die Nachtflugberechtigung (NVFR) und die Klassenberechtigung (SE SP).

Wir sind selbstverständlich zertifiziert nach den aktuellen EU Richtlinien. Unser ATO-Zulassungsnummer ist  DE.BY.ATO.007.

Auf den folgenden Seiten stellen wir uns vor, lassen Sie sich inspirieren!

Happy Landings!

Christian Sabionski

+49 172 8140311

Diese E-Mail-Adresse ist vor Spambots geschützt! Zur Anzeige muss JavaScript eingeschaltet sein!

Flugwetter Augsburg

[source: ADDS]
METAR
EDMA 260420Z AUTO 00000KT 2200 // NCD 17/16 Q1024 =
TAF EDMA 251700Z 2518/2603 VRB03KT CAVOK
TAF
TAF EDMA 251700Z 2518/2603 VRB03KT CAVOK =
Cookies erleichtern die Bereitstellung unserer Dienste. Mit der Nutzung unserer Dienste erklären Sie sich damit einverstanden, dass wir Cookies verwenden.
Weitere Informationen Ok